sensor_id;sensor_type;location;lat;lon;timestamp;temperature;humidity
35305;DHT22;26433;48.034;-1.764;2022-08-25T00:02:44;23.50;80.30
35305;DHT22;26433;48.034;-1.764;2022-08-25T00:07:57;23.50;80.80
35305;DHT22;26433;48.034;-1.764;2022-08-25T00:13:02;23.40;81.00
35305;DHT22;26433;48.034;-1.764;2022-08-25T00:18:07;23.40;81.30
35305;DHT22;26433;48.034;-1.764;2022-08-25T00:23:21;23.30;81.80
35305;DHT22;26433;48.034;-1.764;2022-08-25T00:28:25;23.30;82.10
35305;DHT22;26433;48.034;-1.764;2022-08-25T00:33:32;23.30;82.10
35305;DHT22;26433;48.034;-1.764;2022-08-25T00:38:36;23.30;81.90
35305;DHT22;26433;48.034;-1.764;2022-08-25T00:43:45;23.30;82.40
35305;DHT22;26433;48.034;-1.764;2022-08-25T00:48:54;23.20;82.60
35305;DHT22;26433;48.034;-1.764;2022-08-25T00:53:59;23.20;82.90
35305;DHT22;26433;48.034;-1.764;2022-08-25T00:59:04;23.10;83.90
35305;DHT22;26433;48.034;-1.764;2022-08-25T01:04:09;23.10;83.70
35305;DHT22;26433;48.034;-1.764;2022-08-25T01:09:14;23.00;84.00
35305;DHT22;26433;48.034;-1.764;2022-08-25T01:14:19;23.00;84.40
35305;DHT22;26433;48.034;-1.764;2022-08-25T01:19:26;23.00;84.70
35305;DHT22;26433;48.034;-1.764;2022-08-25T01:24:35;23.00;84.90
35305;DHT22;26433;48.034;-1.764;2022-08-25T01:29:40;22.90;85.40
35305;DHT22;26433;48.034;-1.764;2022-08-25T01:34:45;22.80;85.80
35305;DHT22;26433;48.034;-1.764;2022-08-25T01:39:51;22.80;86.30
35305;DHT22;26433;48.034;-1.764;2022-08-25T01:44:55;22.80;86.60
35305;DHT22;26433;48.034;-1.764;2022-08-25T01:49:59;22.80;86.90
35305;DHT22;26433;48.034;-1.764;2022-08-25T01:55:05;22.70;87.10
35305;DHT22;26433;48.034;-1.764;2022-08-25T02:00:10;22.70;87.30
35305;DHT22;26433;48.034;-1.764;2022-08-25T02:05:15;22.70;87.30
35305;DHT22;26433;48.034;-1.764;2022-08-25T02:10:26;22.80;87.40
35305;DHT22;26433;48.034;-1.764;2022-08-25T02:15:30;22.80;87.50
35305;DHT22;26433;48.034;-1.764;2022-08-25T02:20:33;22.80;87.90
35305;DHT22;26433;48.034;-1.764;2022-08-25T02:25:40;22.90;87.00
35305;DHT22;26433;48.034;-1.764;2022-08-25T02:30:44;22.90;86.60
35305;DHT22;26433;48.034;-1.764;2022-08-25T02:35:49;23.00;86.50
35305;DHT22;26433;48.034;-1.764;2022-08-25T02:40:54;23.00;86.50
35305;DHT22;26433;48.034;-1.764;2022-08-25T02:45:58;23.10;86.50
35305;DHT22;26433;48.034;-1.764;2022-08-25T02:51:03;23.10;86.60
35305;DHT22;26433;48.034;-1.764;2022-08-25T02:56:11;22.90;87.40
35305;DHT22;26433;48.034;-1.764;2022-08-25T03:01:15;23.00;87.60
35305;DHT22;26433;48.034;-1.764;2022-08-25T03:06:20;23.00;87.50
35305;DHT22;26433;48.034;-1.764;2022-08-25T03:11:27;23.00;87.90
35305;DHT22;26433;48.034;-1.764;2022-08-25T03:16:30;23.00;88.20
35305;DHT22;26433;48.034;-1.764;2022-08-25T03:21:36;23.00;88.00
35305;DHT22;26433;48.034;-1.764;2022-08-25T03:26:41;23.00;87.90
35305;DHT22;26433;48.034;-1.764;2022-08-25T03:31:58;23.00;87.90
35305;DHT22;26433;48.034;-1.764;2022-08-25T03:37:03;23.10;88.20
35305;DHT22;26433;48.034;-1.764;2022-08-25T03:42:11;23.10;88.10
35305;DHT22;26433;48.034;-1.764;2022-08-25T03:47:14;23.00;88.40
35305;DHT22;26433;48.034;-1.764;2022-08-25T03:52:18;23.00;88.40
35305;DHT22;26433;48.034;-1.764;2022-08-25T03:57:23;23.00;88.60
35305;DHT22;26433;48.034;-1.764;2022-08-25T04:02:27;23.00;88.70
35305;DHT22;26433;48.034;-1.764;2022-08-25T04:07:31;23.00;89.10
35305;DHT22;26433;48.034;-1.764;2022-08-25T04:12:36;22.90;89.50
35305;DHT22;26433;48.034;-1.764;2022-08-25T04:17:40;22.90;89.60
35305;DHT22;26433;48.034;-1.764;2022-08-25T04:22:45;22.90;89.80
35305;DHT22;26433;48.034;-1.764;2022-08-25T04:27:50;22.90;89.80
35305;DHT22;26433;48.034;-1.764;2022-08-25T04:32:54;22.90;89.90
35305;DHT22;26433;48.034;-1.764;2022-08-25T04:37:58;22.90;90.10
35305;DHT22;26433;48.034;-1.764;2022-08-25T04:43:03;22.80;90.20
35305;DHT22;26433;48.034;-1.764;2022-08-25T04:48:06;22.80;90.40
35305;DHT22;26433;48.034;-1.764;2022-08-25T04:53:11;22.80;90.80
35305;DHT22;26433;48.034;-1.764;2022-08-25T04:58:16;22.80;90.50
35305;DHT22;26433;48.034;-1.764;2022-08-25T05:03:19;22.80;90.30
35305;DHT22;26433;48.034;-1.764;2022-08-25T05:08:23;22.80;90.50
35305;DHT22;26433;48.034;-1.764;2022-08-25T05:13:28;22.70;90.60
35305;DHT22;26433;48.034;-1.764;2022-08-25T05:18:33;22.70;90.70
35305;DHT22;26433;48.034;-1.764;2022-08-25T05:23:38;22.60;90.80
35305;DHT22;26433;48.034;-1.764;2022-08-25T05:28:43;22.60;91.00
35305;DHT22;26433;48.034;-1.764;2022-08-25T05:33:48;22.60;91.00
35305;DHT22;26433;48.034;-1.764;2022-08-25T05:38:52;22.70;91.10
35305;DHT22;26433;48.034;-1.764;2022-08-25T05:43:57;22.70;91.00
35305;DHT22;26433;48.034;-1.764;2022-08-25T05:49:01;22.60;91.30
35305;DHT22;26433;48.034;-1.764;2022-08-25T05:54:04;22.60;91.40
35305;DHT22;26433;48.034;-1.764;2022-08-25T05:59:09;22.60;91.40
35305;DHT22;26433;48.034;-1.764;2022-08-25T06:04:14;22.50;91.60
35305;DHT22;26433;48.034;-1.764;2022-08-25T06:09:19;22.40;91.70
35305;DHT22;26433;48.034;-1.764;2022-08-25T06:14:24;22.40;91.90
35305;DHT22;26433;48.034;-1.764;2022-08-25T06:19:28;22.40;92.00
35305;DHT22;26433;48.034;-1.764;2022-08-25T06:24:32;22.30;91.90
35305;DHT22;26433;48.034;-1.764;2022-08-25T06:29:37;22.40;92.00
35305;DHT22;26433;48.034;-1.764;2022-08-25T06:34:43;22.50;92.00
35305;DHT22;26433;48.034;-1.764;2022-08-25T06:39:46;22.50;92.00
35305;DHT22;26433;48.034;-1.764;2022-08-25T06:44:52;22.50;92.00
35305;DHT22;26433;48.034;-1.764;2022-08-25T06:49:55;22.60;92.00
35305;DHT22;26433;48.034;-1.764;2022-08-25T06:54:59;22.60;92.00
35305;DHT22;26433;48.034;-1.764;2022-08-25T07:00:06;22.60;92.00
35305;DHT22;26433;48.034;-1.764;2022-08-25T07:05:10;22.60;92.10
35305;DHT22;26433;48.034;-1.764;2022-08-25T07:10:22;22.60;92.10
35305;DHT22;26433;48.034;-1.764;2022-08-25T07:15:28;22.60;92.10
35305;DHT22;26433;48.034;-1.764;2022-08-25T07:20:33;22.60;92.20
35305;DHT22;26433;48.034;-1.764;2022-08-25T07:25:37;22.60;92.20
35305;DHT22;26433;48.034;-1.764;2022-08-25T07:30:42;22.60;92.30
35305;DHT22;26433;48.034;-1.764;2022-08-25T07:35:52;22.60;92.30
35305;DHT22;26433;48.034;-1.764;2022-08-25T07:41:00;22.70;92.40
35305;DHT22;26433;48.034;-1.764;2022-08-25T07:46:07;22.70;92.40
35305;DHT22;26433;48.034;-1.764;2022-08-25T07:51:12;22.80;92.40
35305;DHT22;26433;48.034;-1.764;2022-08-25T07:56:17;22.80;92.20
35305;DHT22;26433;48.034;-1.764;2022-08-25T08:01:23;22.90;92.20
35305;DHT22;26433;48.034;-1.764;2022-08-25T08:06:27;23.00;92.30
35305;DHT22;26433;48.034;-1.764;2022-08-25T08:11:33;23.00;91.90
35305;DHT22;26433;48.034;-1.764;2022-08-25T08:16:48;23.00;91.90
35305;DHT22;26433;48.034;-1.764;2022-08-25T08:21:52;23.00;92.00
35305;DHT22;26433;48.034;-1.764;2022-08-25T08:26:58;23.00;92.00
35305;DHT22;26433;48.034;-1.764;2022-08-25T08:32:05;23.00;91.90
35305;DHT22;26433;48.034;-1.764;2022-08-25T08:37:09;23.00;91.90
35305;DHT22;26433;48.034;-1.764;2022-08-25T08:42:22;23.00;91.90
35305;DHT22;26433;48.034;-1.764;2022-08-25T08:47:41;22.90;92.00
35305;DHT22;26433;48.034;-1.764;2022-08-25T08:52:48;22.90;92.10
35305;DHT22;26433;48.034;-1.764;2022-08-25T08:57:55;23.00;92.00
35305;DHT22;26433;48.034;-1.764;2022-08-25T09:03:05;23.00;91.90
35305;DHT22;26433;48.034;-1.764;2022-08-25T09:08:11;22.90;91.90
35305;DHT22;26433;48.034;-1.764;2022-08-25T09:13:31;23.00;91.90
35305;DHT22;26433;48.034;-1.764;2022-08-25T09:18:47;23.10;91.90
35305;DHT22;26433;48.034;-1.764;2022-08-25T09:24:08;23.00;91.70
35305;DHT22;26433;48.034;-1.764;2022-08-25T09:29:20;23.10;91.70
35305;DHT22;26433;48.034;-1.764;2022-08-25T09:34:31;23.20;91.50
35305;DHT22;26433;48.034;-1.764;2022-08-25T09:39:36;23.20;91.30
35305;DHT22;26433;48.034;-1.764;2022-08-25T09:44:42;23.30;91.30
35305;DHT22;26433;48.034;-1.764;2022-08-25T09:49:48;23.30;91.30
35305;DHT22;26433;48.034;-1.764;2022-08-25T09:54:53;23.30;91.30
35305;DHT22;26433;48.034;-1.764;2022-08-25T10:00:07;23.30;91.20
35305;DHT22;26433;48.034;-1.764;2022-08-25T10:05:24;23.50;91.10
35305;DHT22;26433;48.034;-1.764;2022-08-25T10:10:30;23.70;90.70
35305;DHT22;26433;48.034;-1.764;2022-08-25T10:15:37;23.80;90.30
35305;DHT22;26433;48.034;-1.764;2022-08-25T10:20:42;24.00;90.00
35305;DHT22;26433;48.034;-1.764;2022-08-25T10:25:48;24.10;89.90
35305;DHT22;26433;48.034;-1.764;2022-08-25T10:31:11;24.00;90.00
35305;DHT22;26433;48.034;-1.764;2022-08-25T10:36:21;24.00;90.00
35305;DHT22;26433;48.034;-1.764;2022-08-25T10:41:37;24.10;90.00
35305;DHT22;26433;48.034;-1.764;2022-08-25T10:46:50;24.30;89.40
35305;DHT22;26433;48.034;-1.764;2022-08-25T10:52:00;24.50;88.50
35305;DHT22;26433;48.034;-1.764;2022-08-25T10:57:13;24.50;87.90
35305;DHT22;26433;48.034;-1.764;2022-08-25T11:02:55;24.50;87.90
35305;DHT22;26433;48.034;-1.764;2022-08-25T11:08:07;24.40;87.80
35305;DHT22;26433;48.034;-1.764;2022-08-25T11:13:17;24.40;87.80
35305;DHT22;26433;48.034;-1.764;2022-08-25T11:18:24;24.40;87.50
35305;DHT22;26433;48.034;-1.764;2022-08-25T11:23:35;24.40;87.50
35305;DHT22;26433;48.034;-1.764;2022-08-25T11:28:49;24.30;87.60
35305;DHT22;26433;48.034;-1.764;2022-08-25T11:33:55;24.20;87.50
35305;DHT22;26433;48.034;-1.764;2022-08-25T11:39:11;24.40;87.20
35305;DHT22;26433;48.034;-1.764;2022-08-25T11:44:34;24.60;86.20
35305;DHT22;26433;48.034;-1.764;2022-08-25T11:49:59;24.80;85.30
35305;DHT22;26433;48.034;-1.764;2022-08-25T11:55:10;24.90;84.60
35305;DHT22;26433;48.034;-1.764;2022-08-25T12:00:18;25.20;83.30
35305;DHT22;26433;48.034;-1.764;2022-08-25T12:05:52;25.50;81.60
35305;DHT22;26433;48.034;-1.764;2022-08-25T12:17:02;25.40;81.50
35305;DHT22;26433;48.034;-1.764;2022-08-25T12:22:41;25.30;81.20
35305;DHT22;26433;48.034;-1.764;2022-08-25T12:28:00;25.40;80.60
35305;DHT22;26433;48.034;-1.764;2022-08-25T12:33:20;25.40;80.10
35305;DHT22;26433;48.034;-1.764;2022-08-25T12:38:30;25.40;79.90
35305;DHT22;26433;48.034;-1.764;2022-08-25T12:43:40;25.60;78.80
35305;DHT22;26433;48.034;-1.764;2022-08-25T12:48:56;25.90;77.50
35305;DHT22;26433;48.034;-1.764;2022-08-25T12:54:11;26.20;75.80
35305;DHT22;26433;48.034;-1.764;2022-08-25T12:59:31;26.00;75.60
35305;DHT22;26433;48.034;-1.764;2022-08-25T13:05:10;26.60;74.60
35305;DHT22;26433;48.034;-1.764;2022-08-25T13:10:28;26.80;73.50
35305;DHT22;26433;48.034;-1.764;2022-08-25T13:15:38;26.80;73.40
35305;DHT22;26433;48.034;-1.764;2022-08-25T13:20:49;26.80;73.10
35305;DHT22;26433;48.034;-1.764;2022-08-25T13:25:55;26.60;73.20
35305;DHT22;26433;48.034;-1.764;2022-08-25T13:31:02;26.30;73.40
35305;DHT22;26433;48.034;-1.764;2022-08-25T13:36:15;26.20;73.80
35305;DHT22;26433;48.034;-1.764;2022-08-25T13:41:36;26.00;74.00
35305;DHT22;26433;48.034;-1.764;2022-08-25T13:46:46;26.10;73.40
35305;DHT22;26433;48.034;-1.764;2022-08-25T13:51:53;26.20;73.00
35305;DHT22;26433;48.034;-1.764;2022-08-25T13:57:06;26.20;72.60
35305;DHT22;26433;48.034;-1.764;2022-08-25T14:02:43;26.10;72.80
35305;DHT22;26433;48.034;-1.764;2022-08-25T14:07:54;25.80;73.40
35305;DHT22;26433;48.034;-1.764;2022-08-25T14:13:30;25.60;73.90
35305;DHT22;26433;48.034;-1.764;2022-08-25T14:18:34;25.50;74.20
35305;DHT22;26433;48.034;-1.764;2022-08-25T14:23:39;26.00;73.20
35305;DHT22;26433;48.034;-1.764;2022-08-25T14:28:44;26.10;72.20
35305;DHT22;26433;48.034;-1.764;2022-08-25T14:33:51;26.20;71.90
35305;DHT22;26433;48.034;-1.764;2022-08-25T14:38:58;26.20;71.70
35305;DHT22;26433;48.034;-1.764;2022-08-25T14:44:10;26.40;71.20
35305;DHT22;26433;48.034;-1.764;2022-08-25T14:49:18;26.50;70.60
35305;DHT22;26433;48.034;-1.764;2022-08-25T14:54:27;26.50;70.30
35305;DHT22;26433;48.034;-1.764;2022-08-25T14:59:34;26.60;70.20
35305;DHT22;26433;48.034;-1.764;2022-08-25T15:04:49;26.30;70.40
35305;DHT22;26433;48.034;-1.764;2022-08-25T15:09:54;26.10;70.80
35305;DHT22;26433;48.034;-1.764;2022-08-25T15:14:58;25.80;71.20
35305;DHT22;26433;48.034;-1.764;2022-08-25T15:20:03;25.60;71.50
35305;DHT22;26433;48.034;-1.764;2022-08-25T15:25:09;25.40;72.10
35305;DHT22;26433;48.034;-1.764;2022-08-25T15:30:13;25.20;72.20
35305;DHT22;26433;48.034;-1.764;2022-08-25T15:35:17;25.10;72.20
35305;DHT22;26433;48.034;-1.764;2022-08-25T15:40:23;25.10;71.90
35305;DHT22;26433;48.034;-1.764;2022-08-25T15:45:27;25.00;72.00
35305;DHT22;26433;48.034;-1.764;2022-08-25T15:50:31;25.00;71.80
35305;DHT22;26433;48.034;-1.764;2022-08-25T15:55:38;24.90;71.90
35305;DHT22;26433;48.034;-1.764;2022-08-25T16:00:43;24.80;71.80
35305;DHT22;26433;48.034;-1.764;2022-08-25T16:05:57;24.80;71.70
35305;DHT22;26433;48.034;-1.764;2022-08-25T16:11:03;24.60;72.00
35305;DHT22;26433;48.034;-1.764;2022-08-25T16:16:08;24.50;72.20
35305;DHT22;26433;48.034;-1.764;2022-08-25T16:21:14;24.50;72.20
35305;DHT22;26433;48.034;-1.764;2022-08-25T16:26:19;24.40;72.00
35305;DHT22;26433;48.034;-1.764;2022-08-25T16:31:23;24.40;71.80
35305;DHT22;26433;48.034;-1.764;2022-08-25T16:36:27;24.30;71.70
35305;DHT22;26433;48.034;-1.764;2022-08-25T16:41:33;24.20;71.90
35305;DHT22;26433;48.034;-1.764;2022-08-25T16:46:37;24.20;72.40
35305;DHT22;26433;48.034;-1.764;2022-08-25T16:51:45;24.10;71.80
35305;DHT22;26433;48.034;-1.764;2022-08-25T16:56:56;24.10;71.70
35305;DHT22;26433;48.034;-1.764;2022-08-25T17:02:00;24.10;71.70
35305;DHT22;26433;48.034;-1.764;2022-08-25T17:07:06;24.10;71.60
35305;DHT22;26433;48.034;-1.764;2022-08-25T17:12:11;24.10;71.50
35305;DHT22;26433;48.034;-1.764;2022-08-25T17:17:15;24.00;71.70
35305;DHT22;26433;48.034;-1.764;2022-08-25T17:22:19;24.00;71.60
35305;DHT22;26433;48.034;-1.764;2022-08-25T17:27:26;24.00;71.60
35305;DHT22;26433;48.034;-1.764;2022-08-25T17:32:32;23.90;71.70
35305;DHT22;26433;48.034;-1.764;2022-08-25T17:37:37;23.90;71.80
35305;DHT22;26433;48.034;-1.764;2022-08-25T17:42:43;23.80;71.90
35305;DHT22;26433;48.034;-1.764;2022-08-25T17:47:46;23.70;72.10
35305;DHT22;26433;48.034;-1.764;2022-08-25T17:52:50;23.60;72.20
35305;DHT22;26433;48.034;-1.764;2022-08-25T17:57:56;23.50;72.20
35305;DHT22;26433;48.034;-1.764;2022-08-25T18:03:00;23.40;72.20
35305;DHT22;26433;48.034;-1.764;2022-08-25T18:08:06;23.30;72.20
35305;DHT22;26433;48.034;-1.764;2022-08-25T18:13:13;23.10;72.30
35305;DHT22;26433;48.034;-1.764;2022-08-25T18:18:17;23.20;72.20
35305;DHT22;26433;48.034;-1.764;2022-08-25T18:23:25;23.20;72.20
35305;DHT22;26433;48.034;-1.764;2022-08-25T18:28:31;23.10;72.20
35305;DHT22;26433;48.034;-1.764;2022-08-25T18:33:36;23.10;72.40
35305;DHT22;26433;48.034;-1.764;2022-08-25T18:38:43;22.90;72.50
35305;DHT22;26433;48.034;-1.764;2022-08-25T18:44:06;22.80;72.90
35305;DHT22;26433;48.034;-1.764;2022-08-25T18:49:12;22.60;73.10
35305;DHT22;26433;48.034;-1.764;2022-08-25T18:54:18;22.50;73.20
35305;DHT22;26433;48.034;-1.764;2022-08-25T18:59:26;22.50;73.40
35305;DHT22;26433;48.034;-1.764;2022-08-25T19:04:29;22.40;73.50
35305;DHT22;26433;48.034;-1.764;2022-08-25T19:09:34;22.30;73.60
35305;DHT22;26433;48.034;-1.764;2022-08-25T19:14:39;22.30;73.70
35305;DHT22;26433;48.034;-1.764;2022-08-25T19:19:42;22.20;73.90
35305;DHT22;26433;48.034;-1.764;2022-08-25T19:24:49;22.10;74.10
35305;DHT22;26433;48.034;-1.764;2022-08-25T19:29:54;22.00;74.40
35305;DHT22;26433;48.034;-1.764;2022-08-25T19:34:58;21.90;74.60
35305;DHT22;26433;48.034;-1.764;2022-08-25T19:40:04;21.80;74.90
35305;DHT22;26433;48.034;-1.764;2022-08-25T19:45:10;21.70;75.00
35305;DHT22;26433;48.034;-1.764;2022-08-25T19:50:15;21.70;75.20
35305;DHT22;26433;48.034;-1.764;2022-08-25T19:55:19;21.50;75.30
35305;DHT22;26433;48.034;-1.764;2022-08-25T20:00:28;21.40;75.50
35305;DHT22;26433;48.034;-1.764;2022-08-25T20:05:32;21.40;75.80
35305;DHT22;26433;48.034;-1.764;2022-08-25T20:10:36;21.20;75.90
35305;DHT22;26433;48.034;-1.764;2022-08-25T20:15:44;21.00;76.10
35305;DHT22;26433;48.034;-1.764;2022-08-25T20:20:48;20.90;76.40
35305;DHT22;26433;48.034;-1.764;2022-08-25T20:25:52;20.80;76.60
35305;DHT22;26433;48.034;-1.764;2022-08-25T20:30:58;20.70;76.70
35305;DHT22;26433;48.034;-1.764;2022-08-25T20:36:02;20.70;76.70
35305;DHT22;26433;48.034;-1.764;2022-08-25T20:41:08;20.60;76.70
35305;DHT22;26433;48.034;-1.764;2022-08-25T20:46:14;20.50;76.90
35305;DHT22;26433;48.034;-1.764;2022-08-25T20:51:18;20.50;77.00
35305;DHT22;26433;48.034;-1.764;2022-08-25T20:56:24;20.50;77.00
35305;DHT22;26433;48.034;-1.764;2022-08-25T21:01:32;20.50;77.00
35305;DHT22;26433;48.034;-1.764;2022-08-25T21:06:44;20.40;77.00
35305;DHT22;26433;48.034;-1.764;2022-08-25T21:11:48;20.40;77.10
35305;DHT22;26433;48.034;-1.764;2022-08-25T21:16:54;20.30;77.20
35305;DHT22;26433;48.034;-1.764;2022-08-25T21:21:58;20.20;77.30
35305;DHT22;26433;48.034;-1.764;2022-08-25T21:27:03;20.20;77.50
35305;DHT22;26433;48.034;-1.764;2022-08-25T21:32:08;20.10;77.60
35305;DHT22;26433;48.034;-1.764;2022-08-25T21:37:12;20.10;77.80
35305;DHT22;26433;48.034;-1.764;2022-08-25T21:42:16;20.00;77.90
35305;DHT22;26433;48.034;-1.764;2022-08-25T21:47:22;19.70;78.10
35305;DHT22;26433;48.034;-1.764;2022-08-25T21:52:26;19.80;78.60
35305;DHT22;26433;48.034;-1.764;2022-08-25T21:57:31;19.80;78.70
35305;DHT22;26433;48.034;-1.764;2022-08-25T22:02:39;19.80;78.80
35305;DHT22;26433;48.034;-1.764;2022-08-25T22:07:45;19.70;78.80
35305;DHT22;26433;48.034;-1.764;2022-08-25T22:12:49;19.70;78.90
35305;DHT22;26433;48.034;-1.764;2022-08-25T22:17:54;19.70;79.10
35305;DHT22;26433;48.034;-1.764;2022-08-25T22:22:57;19.60;79.20
35305;DHT22;26433;48.034;-1.764;2022-08-25T22:28:02;19.50;79.40
